Time;durP1;ratioP1;P1;durP2;ratioP2;P2;SDS_P1;SDS_P2;PMS_P1;PMS_P2;Temp;Humidity;BMP_temperature;BMP_pressure;BME280_temperature;BME280_humidity;BME280_pressure;Samples;Min_cycle;Max_cycle;Signal;HPM_P1;HPM_P2
2022/11/07 00:00:37;;;;;;;1.47;1.37;;;;;13.80;98764.00;;;;16573772;28;20259;-84
2022/11/07 00:08:40;;;;;;;1.40;1.30;;;;;13.70;98775.00;;;;16550783;28;20199;-84
2022/11/07 00:16:43;;;;;;;1.30;1.20;;;;;13.80;98792.00;;;;16533239;28;20334;-83
2022/11/07 00:24:47;;;;;;;1.50;1.40;;;;;13.70;98812.00;;;;16523408;28;20321;-84
2022/11/07 00:32:49;;;;;;;2.70;1.30;;;;;13.50;98799.00;;;;16553920;28;20238;-84
2022/11/07 00:40:57;;;;;;;2.50;1.70;;;;;13.60;98820.00;;;;16570976;28;20220;-84
2022/11/07 00:49:00;;;;;;;3.30;1.67;;;;;13.60;98833.00;;;;16568933;28;20265;-85
2022/11/07 00:57:04;;;;;;;1.50;1.40;;;;;13.70;98844.00;;;;16531517;28;20238;-84
2022/11/07 01:05:11;;;;;;;2.17;1.43;;;;;13.70;98843.00;;;;16575636;28;20282;-84
2022/11/07 01:13:15;;;;;;;1.53;1.43;;;;;13.90;98839.00;;;;16546297;28;20230;-82
2022/11/07 01:21:17;;;;;;;1.67;1.57;;;;;13.80;98832.00;;;;16536780;28;20584;-83
2022/11/07 01:29:21;;;;;;;2.23;1.60;;;;;13.50;98835.00;;;;16546129;28;20245;-83
2022/11/07 01:37:24;;;;;;;3.40;1.70;;;;;13.60;98840.00;;;;16554247;28;20317;-83
2022/11/07 01:45:29;;;;;;;2.00;1.50;;;;;13.70;98834.00;;;;16536479;28;20231;-82
2022/11/07 01:53:33;;;;;;;1.50;1.40;;;;;13.80;98829.00;;;;16551045;28;20234;-82
2022/11/07 02:01:37;;;;;;;2.60;1.57;;;;;13.60;98833.00;;;;16550628;28;20224;-82
2022/11/07 02:09:40;;;;;;;1.67;1.57;;;;;13.90;98839.00;;;;16543405;28;20207;-83
2022/11/07 02:17:44;;;;;;;1.57;1.47;;;;;13.80;98830.00;;;;16561459;28;20263;-83
2022/11/07 02:25:48;;;;;;;1.47;1.37;;;;;14.00;98828.00;;;;16560231;28;20654;-82
2022/11/07 02:33:51;;;;;;;2.70;1.30;;;;;14.40;98829.00;;;;16544780;28;20230;-83
2022/11/07 02:41:55;;;;;;;1.83;1.70;;;;;14.40;98826.00;;;;16586734;28;20572;-83
2022/11/07 02:49:57;;;;;;;2.03;1.40;;;;;14.30;98835.00;;;;16533669;28;20204;-83
2022/11/07 02:58:01;;;;;;;2.00;1.70;;;;;14.20;98824.00;;;;16556480;28;20226;-85
2022/11/07 03:06:04;;;;;;;2.13;1.67;;;;;14.20;98823.00;;;;16589639;28;20226;-84
2022/11/07 03:14:08;;;;;;;2.83;1.70;;;;;14.40;98826.00;;;;16570047;28;20289;-84
2022/11/07 03:22:11;;;;;;;3.47;1.57;;;;;14.60;98829.00;;;;16552556;28;20365;-83
2022/11/07 03:30:15;;;;;;;1.43;1.33;;;;;14.70;98831.00;;;;16546034;28;20295;-84
2022/11/07 03:38:17;;;;;;;2.40;1.70;;;;;14.80;98837.00;;;;16551432;28;20241;-84
2022/11/07 03:46:21;;;;;;;2.73;2.10;;;;;14.60;98839.00;;;;16539197;28;20219;-84
2022/11/07 03:54:24;;;;;;;2.37;1.70;;;;;14.60;98837.00;;;;16527894;28;20270;-84
2022/11/07 04:02:28;;;;;;;2.13;1.40;;;;;14.10;98844.00;;;;16542681;28;20247;-83
2022/11/07 04:10:30;;;;;;;1.97;1.60;;;;;14.10;98859.00;;;;16567047;28;20230;-84
2022/11/07 04:18:34;;;;;;;1.73;1.50;;;;;14.00;98868.00;;;;16557553;28;20288;-83
2022/11/07 04:35:07;;;;;;;2.00;1.80;;;;;14.10;98879.00;;;;16547847;28;20238;-84
2022/11/07 04:43:10;;;;;;;3.40;1.40;;;;;13.70;98865.00;;;;16563182;28;20220;-83
2022/11/07 04:51:16;;;;;;;2.43;1.57;;;;;12.80;98885.00;;;;16564517;28;20797;-83
2022/11/07 04:59:19;;;;;;;2.50;1.40;;;;;12.30;98909.00;;;;16553186;28;20254;-83
2022/11/07 05:07:23;;;;;;;1.77;1.67;;;;;12.20;98916.00;;;;16567670;28;20647;-84
2022/11/07 05:15:25;;;;;;;2.07;1.87;;;;;12.40;98899.00;;;;16592131;28;20217;-82
2022/11/07 05:23:29;;;;;;;2.77;2.13;;;;;11.70;98908.00;;;;16565007;28;20238;-83
2022/11/07 05:31:32;;;;;;;3.50;2.37;;;;;11.50;98919.00;;;;16567971;28;20227;-83
2022/11/07 05:39:36;;;;;;;2.60;2.40;;;;;11.30;98918.00;;;;16572634;28;20225;-82
2022/11/07 05:47:38;;;;;;;5.40;3.47;;;;;11.30;98935.00;;;;16555347;28;20262;-84
2022/11/07 05:55:42;;;;;;;3.97;3.13;;;;;11.50;98923.00;;;;16545987;28;20235;-84
2022/11/07 06:03:45;;;;;;;5.90;2.77;;;;;11.20;98930.00;;;;16547188;28;20231;-83
2022/11/07 06:11:49;;;;;;;17.80;15.90;;;;;11.30;98942.00;;;;16578355;28;20484;-84
2022/11/07 06:19:51;;;;;;;43.03;39.33;;;;;11.40;98922.00;;;;16552940;28;20204;-82
2022/11/07 06:27:59;;;;;;;15.27;13.90;;;;;11.50;98923.00;;;;16551786;28;20211;-82
2022/11/07 06:36:07;;;;;;;10.13;9.13;;;;;11.20;98936.00;;;;16555029;28;20263;-83
2022/11/07 06:44:11;;;;;;;3.70;3.40;;;;;11.60;98941.00;;;;16554590;28;20224;-84
2022/11/07 06:52:13;;;;;;;2.80;2.60;;;;;12.00;98940.00;;;;16550223;28;20382;-83
2022/11/07 07:00:18;;;;;;;4.47;3.33;;;;;11.70;98943.00;;;;16578601;28;20389;-84
2022/11/07 07:08:20;;;;;;;6.57;3.93;;;;;11.70;98947.00;;;;16553643;28;20296;-84
2022/11/07 07:16:24;;;;;;;3.87;3.37;;;;;12.10;98956.00;;;;16566447;28;20278;-83
2022/11/07 07:24:26;;;;;;;3.30;2.60;;;;;12.70;98953.00;;;;16590230;28;20247;-84
2022/11/07 07:32:30;;;;;;;5.40;3.40;;;;;12.30;98979.00;;;;16566314;28;20715;-85
2022/11/07 07:40:33;;;;;;;5.97;4.97;;;;;12.30;98971.00;;;;16563568;28;20573;-85
2022/11/07 07:48:36;;;;;;;10.43;9.77;;;;;12.20;98971.00;;;;16539889;28;20208;-85
2022/11/07 07:56:39;;;;;;;6.63;5.37;;;;;13.00;98968.00;;;;16584682;28;20232;-84
2022/11/07 08:04:43;;;;;;;3.93;2.40;;;;;13.90;98967.00;;;;16588548;28;20228;-84
2022/11/07 08:12:46;;;;;;;4.40;2.37;;;;;14.30;98962.00;;;;16599873;28;20215;-85
2022/11/07 08:20:50;;;;;;;3.37;2.47;;;;;14.40;98960.00;;;;16583861;28;20259;-84
2022/11/07 08:28:54;;;;;;;6.90;3.20;;;;;14.40;98963.00;;;;16595142;28;20234;-84
2022/11/07 08:36:58;;;;;;;6.50;3.10;;;;;14.50;98966.00;;;;16561695;28;20235;-84
2022/11/07 08:45:00;;;;;;;9.60;3.57;;;;;14.60;98968.00;;;;16584740;28;20235;-85
2022/11/07 08:53:04;;;;;;;10.60;3.40;;;;;14.80;98965.00;;;;16588906;28;20233;-85
2022/11/07 09:01:07;;;;;;;5.63;3.10;;;;;15.10;98962.00;;;;16579431;28;20227;-85
2022/11/07 09:09:11;;;;;;;5.83;3.93;;;;;15.50;98959.00;;;;16581471;28;20208;-84
2022/11/07 09:17:14;;;;;;;6.10;3.00;;;;;15.60;98958.00;;;;16578348;28;20230;-84
2022/11/07 09:25:18;;;;;;;5.63;2.83;;;;;16.00;98966.00;;;;16562098;28;20838;-85
2022/11/07 09:33:20;;;;;;;8.90;3.17;;;;;16.40;98968.00;;;;16564754;28;20686;-85
2022/11/07 09:41:33;;;;;;;6.33;2.83;;;;;16.60;98967.00;;;;16586419;28;20223;-84
2022/11/07 09:49:38;;;;;;;7.67;3.70;;;;;16.70;98979.00;;;;16572186;28;20207;-85
2022/11/07 09:57:42;;;;;;;5.10;2.67;;;;;16.70;98976.00;;;;16565897;28;20786;-85
2022/11/07 10:05:49;;;;;;;3.93;2.33;;;;;16.80;98980.00;;;;16554090;28;20352;-85
2022/11/07 10:14:00;;;;;;;7.00;2.43;;;;;16.80;98980.00;;;;16559731;28;20298;-84
2022/11/07 10:22:12;;;;;;;4.10;1.73;;;;;17.00;98980.00;;;;16568527;28;20810;-85
2022/11/07 10:30:18;;;;;;;3.73;2.00;;;;;17.00;98969.00;;;;16538135;28;20258;-85
2022/11/07 10:38:25;;;;;;;5.10;4.00;;;;;17.30;98961.00;;;;16570931;28;20341;-85
2022/11/07 10:46:34;;;;;;;7.73;3.10;;;;;17.20;98966.00;;;;16556458;28;20286;-85
2022/11/07 10:54:36;;;;;;;2.90;2.13;;;;;17.70;98948.00;;;;16556843;28;20273;-85
2022/11/07 11:02:47;;;;;;;4.90;2.07;;;;;17.80;98941.00;;;;16547798;28;20251;-85
2022/11/07 11:10:49;;;;;;;5.10;2.27;;;;;18.10;98930.00;;;;16537416;28;20760;-85
2022/11/07 11:18:56;;;;;;;5.73;2.73;;;;;17.90;98932.00;;;;16541706;28;20319;-85
2022/11/07 11:27:02;;;;;;;7.40;2.10;;;;;18.50;98928.00;;;;16558440;28;20362;-85
2022/11/07 11:35:24;;;;;;;2.40;1.20;;;;;18.80;98932.00;;;;16563297;28;20597;-85
2022/11/07 11:43:30;;;;;;;2.70;1.80;;;;;18.30;98933.00;;;;16550487;28;20720;-85
2022/11/07 11:51:38;;;;;;;4.83;2.10;;;;;19.40;98929.00;;;;16544536;28;20281;-85
2022/11/07 11:59:58;;;;;;;5.87;2.47;;;;;18.30;98923.00;;;;16550927;28;20238;-85
2022/11/07 12:08:14;;;;;;;3.37;1.13;;;;;18.30;98935.00;;;;16554342;28;20192;-85
2022/11/07 12:16:22;;;;;;;4.07;1.60;;;;;18.60;98928.00;;;;16559031;28;20233;-84
2022/11/07 12:24:35;;;;;;;2.53;1.30;;;;;18.90;98926.00;;;;16539272;28;20590;-85
2022/11/07 12:32:49;;;;;;;2.40;1.13;;;;;18.60;98911.00;;;;16557801;28;20289;-85
2022/11/07 12:40:59;;;;;;;2.93;1.10;;;;;18.50;98901.00;;;;16558527;28;20318;-84
2022/11/07 12:49:39;;;;;;;2.57;1.10;;;;;18.60;98905.00;;;;16537819;28;20294;-84
2022/11/07 12:57:43;;;;;;;2.73;1.13;;;;;18.80;98905.00;;;;16567157;28;20310;-84
2022/11/07 13:06:09;;;;;;;5.67;1.73;;;;;18.30;98912.00;;;;16587469;28;20364;-84
2022/11/07 13:14:23;;;;;;;3.07;1.60;;;;;18.60;98905.00;;;;16575080;28;20235;-84
2022/11/07 13:22:33;;;;;;;4.33;3.30;;;;;19.10;98893.00;;;;16558198;28;20716;-84
2022/11/07 13:30:38;;;;;;;4.60;1.47;;;;;20.30;98900.00;;;;16560245;28;20323;-85
2022/11/07 13:38:45;;;;;;;3.80;1.23;;;;;22.30;98877.00;;;;16564208;28;20211;-85
2022/11/07 13:46:51;;;;;;;3.07;1.00;;;;;20.40;98876.00;;;;16559924;28;20748;-85
2022/11/07 13:54:57;;;;;;;4.47;1.50;;;;;20.80;98884.00;;;;16548579;28;20639;-84
2022/11/07 14:03:01;;;;;;;2.97;1.50;;;;;20.30;98886.00;;;;16546051;28;20310;-84
2022/11/07 14:11:04;;;;;;;3.57;2.20;;;;;19.60;98884.00;;;;16565313;28;20708;-84
2022/11/07 14:19:14;;;;;;;3.90;1.47;;;;;19.80;98896.00;;;;16554756;28;20255;-84
2022/11/07 14:27:17;;;;;;;3.53;1.50;;;;;20.00;98900.00;;;;16568506;28;20246;-84
2022/11/07 14:35:23;;;;;;;4.03;1.87;;;;;19.50;98892.00;;;;16578034;28;20822;-84
2022/11/07 14:43:26;;;;;;;3.90;1.60;;;;;19.60;98901.00;;;;16553820;28;20253;-83
2022/11/07 14:51:31;;;;;;;3.47;1.93;;;;;19.30;98901.00;;;;16560588;28;20764;-84
2022/11/07 14:59:34;;;;;;;8.20;3.23;;;;;19.00;98906.00;;;;16581513;28;20725;-83
2022/11/07 15:07:47;;;;;;;3.77;2.63;;;;;18.80;98900.00;;;;16564513;28;20427;-84
2022/11/07 15:15:59;;;;;;;3.67;2.20;;;;;18.80;98908.00;;;;16570689;28;20326;-83
2022/11/07 15:24:24;;;;;;;4.37;2.43;;;;;18.60;98908.00;;;;16564115;28;20223;-83
2022/11/07 15:32:30;;;;;;;5.93;2.37;;;;;18.40;98908.00;;;;16554395;28;20255;-84
2022/11/07 15:40:34;;;;;;;4.93;1.20;;;;;18.20;98903.00;;;;16563389;28;20235;-84
2022/11/07 15:48:37;;;;;;;4.33;1.80;;;;;18.10;98912.00;;;;16560313;28;20345;-83
2022/11/07 15:56:41;;;;;;;4.63;2.00;;;;;17.90;98924.00;;;;16576721;28;20226;-83
2022/11/07 16:04:43;;;;;;;4.13;2.20;;;;;17.80;98917.00;;;;16565851;28;20224;-86
2022/11/07 16:12:47;;;;;;;6.10;3.77;;;;;17.60;98911.00;;;;16569725;28;20321;-85
2022/11/07 16:20:50;;;;;;;5.90;4.70;;;;;16.90;98910.00;;;;16586576;28;20282;-83
2022/11/07 16:28:54;;;;;;;4.03;2.73;;;;;15.60;98928.00;;;;16570033;28;20224;-88
2022/11/07 16:36:57;;;;;;;3.80;2.87;;;;;14.70;98945.00;;;;16567861;28;20262;-86
2022/11/07 16:45:01;;;;;;;5.70;2.60;;;;;13.90;98953.00;;;;16564966;28;20738;-86
2022/11/07 16:53:03;;;;;;;8.00;5.97;;;;;13.80;98950.00;;;;16557057;28;20726;-84
2022/11/07 17:01:08;;;;;;;5.23;4.00;;;;;13.50;98960.00;;;;16584756;28;20883;-86
2022/11/07 17:09:11;;;;;;;6.30;4.40;;;;;13.40;98963.00;;;;16574716;28;20198;-86
2022/11/07 17:17:19;;;;;;;4.27;3.80;;;;;13.20;98950.00;;;;16592532;28;20235;-86
2022/11/07 17:25:21;;;;;;;6.33;4.20;;;;;13.00;98954.00;;;;16573696;28;20297;-87
2022/11/07 17:33:25;;;;;;;9.60;5.10;;;;;13.30;98955.00;;;;16574862;28;20788;-86
2022/11/07 17:41:28;;;;;;;4.70;4.20;;;;;12.90;98967.00;;;;16568653;28;20312;-86
2022/11/07 17:49:33;;;;;;;7.87;3.57;;;;;12.80;98966.00;;;;16580249;28;20212;-85
2022/11/07 17:57:36;;;;;;;6.80;4.40;;;;;12.60;98970.00;;;;16575771;28;20733;-87
2022/11/07 18:05:41;;;;;;;7.93;6.10;;;;;12.80;98976.00;;;;16568194;28;20248;-80
2022/11/07 18:13:43;;;;;;;12.17;6.73;;;;;12.80;98977.00;;;;16566197;28;20231;-80
2022/11/07 18:21:48;;;;;;;9.53;5.23;;;;;12.80;98967.00;;;;16562115;28;20313;-80
2022/11/07 18:29:50;;;;;;;7.80;6.50;;;;;12.90;98962.00;;;;16547751;28;20806;-82
2022/11/07 18:37:54;;;;;;;14.50;8.00;;;;;12.90;98958.00;;;;16560224;28;20237;-82
2022/11/07 18:45:57;;;;;;;11.87;7.63;;;;;12.70;98960.00;;;;16574139;28;20594;-84
2022/11/07 18:54:03;;;;;;;11.60;7.20;;;;;13.00;98956.00;;;;16546813;28;20223;-86
2022/11/07 19:02:05;;;;;;;10.03;7.80;;;;;12.50;98963.00;;;;16567676;28;20226;-84
2022/11/07 19:10:10;;;;;;;11.40;8.67;;;;;12.70;98943.00;;;;16560492;28;20222;-85
2022/11/07 19:18:13;;;;;;;17.47;12.10;;;;;12.00;98953.00;;;;16562423;28;20711;-85
2022/11/07 19:26:17;;;;;;;10.40;8.40;;;;;11.70;98955.00;;;;16595452;28;20769;-84
2022/11/07 19:34:20;;;;;;;9.83;7.00;;;;;12.30;98963.00;;;;16570093;28;20320;-85
2022/11/07 19:42:27;;;;;;;9.00;6.13;;;;;12.20;98967.00;;;;16543454;28;20235;-86
2022/11/07 19:50:29;;;;;;;7.67;6.83;;;;;11.80;98972.00;;;;16539687;28;20227;-86
2022/11/07 19:58:35;;;;;;;6.43;5.90;;;;;12.20;98959.00;;;;16558487;28;20576;-87
2022/11/07 20:06:40;;;;;;;8.47;6.60;;;;;12.10;98959.00;;;;16566757;28;20283;-86
2022/11/07 20:14:45;;;;;;;8.30;6.77;;;;;11.90;98950.00;;;;16567086;28;20278;-90
2022/11/07 20:31:24;;;;;;;9.20;7.00;;;;;11.90;98977.00;;;;16934850;27;20643;-48
2022/11/07 20:39:26;;;;;;;8.40;6.43;;;;;12.40;98978.00;;;;16879154;27;20699;-49
2022/11/07 20:47:30;;;;;;;11.03;9.07;;;;;12.60;98981.00;;;;16869644;28;20233;-49
2022/11/07 20:55:37;;;;;;;8.97;7.87;;;;;11.70;98985.00;;;;16872680;27;20212;-48
2022/11/07 21:03:41;;;;;;;7.93;7.13;;;;;11.20;98991.00;;;;16876193;28;20213;-49
2022/11/07 21:11:44;;;;;;;13.63;11.60;;;;;11.10;99002.00;;;;16875649;28;20329;-48
2022/11/07 21:19:48;;;;;;;8.47;6.70;;;;;10.40;98999.00;;;;16876311;28;20216;-49
2022/11/07 21:27:50;;;;;;;8.23;7.30;;;;;11.00;98991.00;;;;16871288;28;20279;-49
2022/11/07 21:35:54;;;;;;;8.40;6.93;;;;;10.50;98998.00;;;;16866519;28;20217;-49
2022/11/07 21:43:57;;;;;;;12.70;8.90;;;;;10.80;99004.00;;;;16831314;28;20583;-49
2022/11/07 21:52:01;;;;;;;9.43;8.30;;;;;11.10;98985.00;;;;16832496;28;20224;-49
2022/11/07 22:00:04;;;;;;;7.17;6.30;;;;;10.80;98981.00;;;;16827142;28;20217;-49
2022/11/07 22:08:08;;;;;;;8.77;7.47;;;;;11.20;98973.00;;;;16823442;28;20226;-49
2022/11/07 22:16:12;;;;;;;16.97;8.63;;;;;11.60;98968.00;;;;16828280;28;20279;-49
2022/11/07 22:24:16;;;;;;;14.57;11.47;;;;;11.60;98958.00;;;;16832465;28;20232;-49
2022/11/07 22:32:19;;;;;;;15.07;10.73;;;;;11.60;98935.00;;;;16817380;28;20223;-49
2022/11/07 22:40:23;;;;;;;6.43;5.57;;;;;10.60;98939.00;;;;16832379;28;20350;-49
2022/11/07 22:48:25;;;;;;;9.20;8.33;;;;;10.60;98941.00;;;;16869067;28;20303;-48
2022/11/07 22:56:29;;;;;;;12.40;10.40;;;;;10.40;98936.00;;;;16865635;28;20192;-48
2022/11/07 23:04:32;;;;;;;6.90;6.20;;;;;9.80;98936.00;;;;16855398;28;20219;-49
2022/11/07 23:12:36;;;;;;;9.50;6.13;;;;;10.10;98938.00;;;;16861914;28;21093;-48
2022/11/07 23:29:01;;;;;;;7.80;7.00;;;;;10.70;98926.00;;;;16848943;28;20236;-49
2022/11/07 23:37:12;;;;;;;11.10;8.20;;;;;10.50;98925.00;;;;16844023;28;20242;-49
